Glencoe, Minnesota
Current Conditions -  °F | °C
As of 2:14 AM on Thursday 29 Jan 2015 (Local Time) from KGYL Reporting Station
Overcast Overcast  
Wind Chill: 25°   Ceiling: 1200
Heat Index: 34°   Visibility: 10mi
Dew Point: 33°   Wind: 13mph
Humidity: 96%   Direction: 310°NW
Pressure: 29.92"   Gusts: 18mph
Location:  44.77°N, 94.15°W
Report Text: KGYL 290814Z AUTO 31011G16KT 10SM OVC012 01/01 A2992 RMK AO2 T00120006
Loading
Personal Weather Stations






























Interactive Weather Map New forecast layout! Learn more

10-Day Weather Forecast

Advertisements
Track Severe Weather on mobile